• Join FlightAware (Why Join?)
  • Login
  • US Flag 
11:40PM EDT


 

Airport Tracker/Info


-or-


 

Live Flight TrackerFlight Track Log ✈ UAL4419 ✈ 19-Apr-2013 ✈ KIAH - KLIT

Flight Track Log - Related Links

Times and Time Zones

All times are in EDT time to prevent confusion due to time zone crossing. See the UAL4419 flight status page for this flight to view local times or setup timezone preferences in your user account.

Time Position Orientation Groundspeed Altitude Reporting Facility
EDT Latitude Longitude Course Direction KTS MPH feet Rate Location/Type
08:54PM 29.9794 -95.3536 30° Northeast 141 162 700  Level Houston Center
08:55PM 30.0061 -95.3478 11° North 180 207 2,100 1,860 Climbing Houston Center
08:56PM 30.0464 -95.3258 25° Northeast 207 238 3,300 1,620 Climbing Houston Center
08:56PM 30.0661 -95.3142 27° Northeast 262 302 3,800 960 Climbing Houston Center
08:57PM 30.2864 -95.2063 14° North  Level FlightAware Approximate
08:57PM 30.1114 -95.2953 20° North 239 275 4,300  Level Houston Center
08:58PM 30.3899 -95.1717 23° Northeast  Level FlightAware Approximate
08:58PM 30.1733 -95.2667 22° Northeast 241 277 7,000  Level Houston Center
08:59PM 30.4873 -95.1177 27° Northeast  Level FlightAware Approximate
08:59PM 30.2392 -95.2367 21° North 250 288 9,400  Level Houston Center
09:00PM 30.5757 -95.0717 30° Northeast  Level FlightAware Approximate
09:00PM 30.3114 -95.2036 22° Northeast 270 311 11,000  Level Houston Center
09:01PM 30.3975 -95.1633 22° Northeast 319 367 11,700 1,320 Climbing Houston Center
09:02PM 30.5047 -95.1131 22° Northeast 340 391 13,800 1,620 Climbing Houston Center
09:03PM 30.5975 -95.0692 22° Northeast 353 406 15,100 1,260 Climbing Houston Center
09:04PM 30.6883 -95.0131 28° Northeast 366 421 16,500 1,260 Climbing Houston Center
09:05PM 30.7825 -94.9539 28° Northeast 378 435 17,700 1,020 Climbing Houston Center
09:06PM 30.8789 -94.8939 28° Northeast 390 449 18,700 1,020 Climbing Houston Center
09:07PM 30.9772 -94.8331 28° Northeast 397 457 19,900 1,140 Climbing Houston Center
09:08PM 31.0781 -94.7697 28° Northeast 410 472 21,100 1,140 Climbing Houston Center
09:09PM 31.2028 -94.6933 28° Northeast 400 460 22,500 1,080 Climbing Fort Worth Center
09:10PM 31.3056 -94.6197 31° Northeast 411 473 23,600 1,080 Climbing Fort Worth Center
09:11PM 31.4208 -94.5383 31° Northeast 425 489 24,700 1,200 Climbing Fort Worth Center
09:12PM 31.5275 -94.4644 31° Northeast 437 503 26,000 1,200 Climbing Fort Worth Center
09:13PM 31.6303 -94.3928 31° Northeast 437 503 27,200 1,200 Climbing Fort Worth Center
09:14PM 31.7331 -94.3236 30° Northeast 437 503 28,500 1,200 Climbing Fort Worth Center
09:15PM 31.8375 -94.2467 32° Northeast 437 503 29,600 960 Climbing Fort Worth Center
09:16PM 31.9442 -94.1744 30° Northeast 437 503 30,500 840 Climbing Fort Worth Center
09:17PM 32.0528 -94.0969 31° Northeast 443 510 31,400 1,020 Climbing Fort Worth Center
09:18PM 32.1636 -94.0194 31° Northeast 443 510 32,600 780 Climbing Fort Worth Center
09:19PM 32.2739 -93.9342 33° Northeast 455 524 33,000 180 Climbing Fort Worth Center
09:20PM 32.3928 -93.8533 30° Northeast 469 540 33,000  Level Fort Worth Center
09:21PM 32.5094 -93.7700 31° Northeast 480 552 33,000  Level Fort Worth Center
09:22PM 32.6278 -93.6839 31° Northeast 486 559 33,000  Level Fort Worth Center
09:23PM 32.7444 -93.6025 30° Northeast 486 559 33,000  Level Fort Worth Center
09:24PM 32.8608 -93.5208 31° Northeast 480 552 33,000 -600 Level Fort Worth Center
09:25PM 32.9750 -93.4367 32° Northeast 480 552 31,900 -1,260 Descending Fort Worth Center
09:26PM 33.0750 -93.3653 31° Northeast 473 544 30,600 -1,380 Descending Fort Worth Center
09:27PM 33.1872 -93.2831 32° Northeast 473 544 29,200 -1,500 Descending Fort Worth Center
09:28PM 33.2972 -93.2036 31° Northeast 473 544 27,700 -1,500 Descending Fort Worth Center
09:30PM 33.4839 -93.0694 31° Northeast 428 493 25,100 -1,560 Descending Memphis Center
09:31PM 33.5897 -92.9931 31° Northeast 428 493 23,300 -1,860 Descending Memphis Center
09:32PM 33.6936 -92.9189 31° Northeast 433 498 21,400 -1,860 Descending Memphis Center
09:33PM 33.7911 -92.8467 32° Northeast 428 493 19,600 -1,200 Descending Memphis Center
09:34PM 33.8928 -92.7719 31° Northeast 423 487 19,000 -780 Descending Memphis Center
09:35PM 33.9881 -92.7019 31° Northeast 416 479 18,100 -1,440 Descending Memphis Center
09:35PM 34.0283 -92.6706 33° Northeast 393 452 17,000 900 Descending Memphis Center
09:36PM 34.0856 -92.6244 34° Northeast 404 465 19,000 -3,060 Climbing Memphis Center
09:37PM 34.1467 -92.5808 31° Northeast 366 421 13,000 -6,540 Descending Memphis Center
09:37PM 34.1722 -92.5614 32° Northeast 380 437 12,400 -2,640 Descending Memphis Center
09:38PM 34.2269 -92.5225 30° Northeast 346 398 10,400 -2,460 Descending Memphis Center
09:38PM 34.2525 -92.5031 32° Northeast 357 411 10,000 -720 Descending Memphis Center
09:39PM 34.2969 -92.4692 32° Northeast 267 307 9,700 -600 Descending Memphis Center
09:39PM 34.3181 -92.4519 34° Northeast 314 361 9,400 -1,680 Descending Memphis Center
09:40PM 34.3581 -92.4253 29° Northeast 251 289 8,000 -1,740 Descending Memphis Center
09:40PM 34.3772 -92.4056 40° Northeast 274 315 7,700 -1,740 Descending Memphis Center
09:41PM 34.4194 -92.3764 30° Northeast 247 284 6,300 -1,620 Descending Memphis Center
09:41PM 34.4361 -92.3667 26° Northeast 247 284 6,100 -1,200 Descending Memphis Center
09:42PM 34.4742 -92.3375 32° Northeast 240 276 5,100 -660 Descending Memphis Center
09:43PM 34.5356 -92.2883 33° Northeast 252 290 5,000 -60 Descending Memphis Center
09:44PM 34.6008 -92.2419 30° Northeast 244 281 5,000 -360 Level Memphis Center
09:45PM 34.6392 -92.2025 40° Northeast 227 261 4,400 -900 Descending Memphis Center
09:45PM 34.6519 -92.1875 44° Northeast 236 272 4,000 -1,620 Descending Memphis Center
09:46PM 34.6878 -92.1453 44° Northeast 231 266 2,800 -1,320 Descending Memphis Center
09:46PM 34.6986 -92.1328 43° Northeast 223 257 2,700 -720 Descending Memphis Center
09:47PM 34.7306 -92.0881 49° Northeast 231 266 2,100 -720 Descending Memphis Center
09:47PM 34.7411 -92.0783 37° Northeast 217 250 2,000 -120 Descending Memphis Center
09:48PM 34.7744 -92.0814 356° North 174 200 2,000  Level Memphis Center
09:48PM 34.7806 -92.0892 314° West 178 205 2,000  Level Memphis Center